Time;durP1;ratioP1;P1;durP2;ratioP2;P2;SDS_P1;SDS_P2;PMS_P1;PMS_P2;Temp;Humidity;BMP_temperature;BMP_pressure;BME280_temperature;BME280_humidity;BME280_pressure;Samples;Min_cycle;Max_cycle;Signal;HPM_P1;HPM_P2
2023/04/09 00:02:17;;;;;;;13.73;7.85;;;6.90;99.90;;;;;;5031778;28;20038;-50
2023/04/09 00:04:43;;;;;;;17.15;8.57;;;6.90;99.90;;;;;;5048434;28;20041;-50
2023/04/09 00:07:09;;;;;;;11.52;7.35;;;6.90;99.90;;;;;;5033589;28;20037;-48
2023/04/09 00:09:35;;;;;;;11.85;8.57;;;6.90;99.90;;;;;;5033627;28;20389;-48
2023/04/09 00:12:01;;;;;;;11.15;7.90;;;7.00;99.90;;;;;;5033852;28;20029;-51
2023/04/09 00:14:26;;;;;;;14.30;7.75;;;7.00;99.90;;;;;;5033587;28;20364;-47
2023/04/09 00:16:53;;;;;;;10.93;7.75;;;7.10;99.90;;;;;;5031718;28;20525;-49
2023/04/09 00:19:19;;;;;;;10.45;7.88;;;7.10;99.90;;;;;;5033877;28;20083;-51
2023/04/09 00:21:45;;;;;;;20.33;9.55;;;7.20;99.90;;;;;;5033277;28;20025;-50
2023/04/09 00:24:11;;;;;;;14.30;9.25;;;7.10;99.90;;;;;;5033205;28;20053;-52
2023/04/09 00:26:37;;;;;;;13.32;9.85;;;7.10;99.90;;;;;;5033482;28;20033;-50
2023/04/09 00:29:03;;;;;;;15.30;11.07;;;7.10;99.90;;;;;;5033418;28;20516;-49
2023/04/09 00:31:29;;;;;;;22.52;12.82;;;7.10;99.90;;;;;;5033378;28;20041;-50
2023/04/09 00:33:55;;;;;;;14.68;8.75;;;7.10;99.90;;;;;;5033212;28;20030;-50
2023/04/09 00:36:20;;;;;;;12.88;7.35;;;7.10;99.90;;;;;;5033115;28;20061;-48
2023/04/09 00:38:47;;;;;;;8.98;6.70;;;7.10;99.90;;;;;;5033088;28;20068;-50
2023/04/09 00:41:13;;;;;;;10.02;7.45;;;7.10;99.90;;;;;;5033054;28;20083;-49
2023/04/09 00:43:39;;;;;;;12.38;7.60;;;7.10;99.90;;;;;;5033630;28;20033;-50
2023/04/09 00:46:05;;;;;;;11.43;7.97;;;7.10;99.90;;;;;;5033676;28;20044;-52
2023/04/09 00:48:31;;;;;;;8.77;6.97;;;7.10;99.90;;;;;;5034390;28;20359;-50
2023/04/09 00:50:56;;;;;;;14.02;7.63;;;7.10;99.90;;;;;;5037311;28;20041;-52
2023/04/09 00:53:22;;;;;;;15.07;8.57;;;7.20;99.90;;;;;;5035151;28;20512;-49
2023/04/09 00:55:48;;;;;;;13.30;8.55;;;7.20;99.90;;;;;;5037212;28;20115;-49
2023/04/09 00:58:14;;;;;;;12.57;8.43;;;7.20;99.90;;;;;;5037063;28;20124;-48
2023/04/09 01:00:40;;;;;;;13.57;8.32;;;7.20;99.90;;;;;;5037509;28;20040;-48
2023/04/09 01:03:06;;;;;;;13.57;8.75;;;7.20;99.90;;;;;;5051955;28;20041;-49
2023/04/09 01:05:56;;;;;;;11.18;7.55;;;7.20;99.90;;;;;;5051915;28;20485;-47
2023/04/09 01:08:51;;;;;;;12.98;8.02;;;7.20;99.90;;;;;;5034660;28;20053;-50
2023/04/09 01:11:26;;;;;;;10.75;7.45;;;7.20;99.90;;;;;;5034585;28;20486;-47
2023/04/09 01:14:07;;;;;;;12.35;8.05;;;7.20;99.90;;;;;;5018075;28;20077;-47
2023/04/09 01:16:35;;;;;;;13.27;8.38;;;7.20;99.90;;;;;;5034669;28;20556;-50
2023/04/09 01:19:42;;;;;;;17.33;9.93;;;7.20;99.90;;;;;;5034742;28;20087;-50
2023/04/09 01:22:33;;;;;;;19.90;12.07;;;7.20;99.90;;;;;;5034781;28;20429;-49
2023/04/09 01:25:23;;;;;;;12.43;10.43;;;7.20;99.90;;;;;;4981215;28;20046;-49
2023/04/09 01:28:19;;;;;;;10.00;7.32;;;7.30;99.90;;;;;;4994986;28;20145;-52
2023/04/09 01:30:56;;;;;;;9.57;7.47;;;7.20;99.90;;;;;;4992146;28;20050;-48
2023/04/09 01:33:24;;;;;;;12.10;7.78;;;7.20;99.90;;;;;;4962517;28;20060;-51
2023/04/09 01:35:51;;;;;;;15.55;8.27;;;7.30;99.90;;;;;;4994851;28;20038;-50
2023/04/09 01:38:19;;;;;;;14.63;7.85;;;7.30;99.90;;;;;;4995050;28;20056;-51
2023/04/09 01:40:47;;;;;;;9.02;6.63;;;7.30;99.90;;;;;;4994921;28;20038;-48
2023/04/09 01:43:14;;;;;;;9.73;6.90;;;7.20;99.90;;;;;;4994794;28;20069;-52
2023/04/09 01:45:40;;;;;;;12.85;9.02;;;7.20;99.90;;;;;;4994722;28;20082;-49
2023/04/09 01:48:07;;;;;;;10.30;7.85;;;7.30;99.90;;;;;;4994649;28;20588;-51
2023/04/09 01:50:34;;;;;;;12.68;8.27;;;7.30;99.90;;;;;;4994681;28;20042;-51
2023/04/09 01:53:01;;;;;;;15.05;9.88;;;7.30;99.90;;;;;;4994625;28;20517;-53
2023/04/09 01:55:26;;;;;;;13.90;7.43;;;7.30;99.90;;;;;;4994567;28;20557;-53
2023/04/09 01:57:52;;;;;;;9.25;6.80;;;7.30;99.90;;;;;;4994545;28;20038;-49
2023/04/09 02:00:18;;;;;;;12.73;7.78;;;7.30;99.90;;;;;;4981237;28;20078;-47
2023/04/09 02:02:53;;;;;;;11.07;8.13;;;7.20;99.90;;;;;;5000969;28;20124;-58
2023/04/09 02:05:22;;;;;;;15.57;9.75;;;6.90;99.90;;;;;;5039885;28;20034;-61
2023/04/09 02:07:54;;;;;;;16.00;8.07;;;6.80;99.90;;;;;;5039511;28;20041;-50
2023/04/09 02:10:25;;;;;;;15.25;10.63;;;6.90;99.90;;;;;;5033871;28;20049;-48
2023/04/09 02:12:52;;;;;;;9.68;6.70;;;7.00;99.90;;;;;;5036019;28;20112;-50
2023/04/09 02:15:21;;;;;;;18.25;10.07;;;6.80;99.90;;;;;;5035742;28;20075;-53
2023/04/09 02:17:47;;;;;;;13.55;8.75;;;6.80;99.90;;;;;;5035567;28;20034;-47
2023/04/09 02:20:17;;;;;;;12.63;8.13;;;6.90;99.90;;;;;;5033917;28;20492;-51
2023/04/09 02:22:44;;;;;;;14.30;8.77;;;6.90;99.90;;;;;;5035629;28;20104;-47
2023/04/09 02:25:10;;;;;;;11.45;9.13;;;6.90;99.90;;;;;;5033656;28;20204;-49
2023/04/09 02:27:36;;;;;;;15.95;9.60;;;6.80;99.90;;;;;;5033537;28;20124;-50
2023/04/09 02:30:02;;;;;;;16.42;9.25;;;7.00;99.90;;;;;;5035392;28;20126;-49
2023/04/09 02:32:28;;;;;;;13.15;7.95;;;7.00;99.90;;;;;;5035469;28;20044;-50
2023/04/09 02:34:54;;;;;;;14.50;9.25;;;7.10;99.90;;;;;;5035082;28;20030;-49
2023/04/09 02:37:20;;;;;;;15.13;9.80;;;7.20;99.90;;;;;;5050213;28;20041;-51
2023/04/09 02:39:45;;;;;;;14.15;8.10;;;7.20;99.90;;;;;;5035180;28;20025;-50
2023/04/09 02:42:11;;;;;;;12.13;7.93;;;7.20;99.90;;;;;;5050208;28;20068;-49
2023/04/09 02:44:37;;;;;;;16.08;8.32;;;7.10;99.90;;;;;;5035176;28;20026;-50
2023/04/09 02:47:02;;;;;;;10.20;7.55;;;7.00;99.90;;;;;;5035365;28;20037;-49
2023/04/09 02:49:28;;;;;;;9.07;6.72;;;7.00;99.90;;;;;;5050143;28;20056;-50
2023/04/09 02:51:54;;;;;;;12.68;6.97;;;7.00;99.90;;;;;;5049718;28;20042;-50
2023/04/09 02:54:19;;;;;;;9.00;6.18;;;7.00;99.90;;;;;;5035312;28;20033;-52
2023/04/09 02:56:45;;;;;;;13.20;7.18;;;7.00;99.90;;;;;;5034841;28;20050;-52
2023/04/09 02:59:11;;;;;;;11.25;8.20;;;7.00;99.90;;;;;;5034992;28;20465;-51
2023/04/09 03:01:37;;;;;;;8.18;6.03;;;7.00;99.90;;;;;;5034946;28;20064;-48
2023/04/09 03:04:02;;;;;;;8.82;5.90;;;7.00;99.90;;;;;;5034597;28;20042;-52
2023/04/09 03:06:28;;;;;;;9.10;6.68;;;7.00;99.90;;;;;;5034704;28;20033;-53
2023/04/09 03:08:54;;;;;;;17.15;6.85;;;6.90;99.90;;;;;;5034754;28;20086;-49
2023/04/09 03:11:20;;;;;;;7.25;5.22;;;6.70;99.90;;;;;;5034403;28;20037;-51
2023/04/09 03:13:45;;;;;;;9.18;6.70;;;6.40;99.90;;;;;;5032813;28;20129;-51
2023/04/09 03:16:11;;;;;;;10.32;7.13;;;6.20;99.90;;;;;;5034622;28;20037;-49
2023/04/09 03:18:37;;;;;;;8.57;6.15;;;;;;;;;;5034569;28;20029;-50
2023/04/09 03:21:07;;;;;;;9.18;5.13;;;6.10;99.90;;;;;;5034366;28;20035;-50
2023/04/09 03:23:33;;;;;;;10.88;7.28;;;6.20;99.90;;;;;;5034691;28;20038;-52
2023/04/09 03:26:03;;;;;;;8.95;5.93;;;6.30;99.90;;;;;;5015837;28;20053;-53
2023/04/09 03:28:30;;;;;;;7.63;5.63;;;6.40;99.90;;;;;;5034322;28;20038;-49
2023/04/09 03:30:56;;;;;;;7.85;5.03;;;6.50;99.90;;;;;;5033990;28;20044;-50
2023/04/09 03:33:22;;;;;;;8.88;6.22;;;6.50;99.90;;;;;;5034271;28;20473;-51
2023/04/09 03:35:47;;;;;;;10.82;6.30;;;6.60;99.90;;;;;;5034082;28;20036;-50
2023/04/09 03:38:13;;;;;;;7.65;4.97;;;6.50;99.90;;;;;;5034521;28;20041;-49
2023/04/09 03:40:40;;;;;;;9.00;5.85;;;6.50;99.90;;;;;;5034605;28;20029;-50
2023/04/09 03:43:06;;;;;;;10.90;6.53;;;6.50;99.90;;;;;;5033975;28;20068;-50
2023/04/09 03:45:32;;;;;;;7.60;5.82;;;6.60;99.90;;;;;;5035455;28;20033;-52
2023/04/09 03:47:57;;;;;;;9.18;6.70;;;6.50;99.90;;;;;;5036124;28;20026;-51
2023/04/09 03:50:23;;;;;;;8.77;5.93;;;6.50;99.90;;;;;;5035709;28;20480;-55
2023/04/09 03:52:49;;;;;;;9.80;6.45;;;6.40;99.90;;;;;;5035752;28;20554;-50
2023/04/09 03:55:15;;;;;;;7.85;5.20;;;6.40;99.90;;;;;;5035272;28;20045;-48
2023/04/09 03:57:41;;;;;;;7.18;5.95;;;6.40;99.90;;;;;;5035912;28;20041;-59
2023/04/09 04:00:07;;;;;;;10.20;8.32;;;6.40;99.90;;;;;;5050459;28;20041;-52
2023/04/09 04:02:33;;;;;;;13.20;6.22;;;6.40;99.90;;;;;;5035322;28;20033;-50
2023/04/09 04:04:59;;;;;;;9.13;6.57;;;6.40;99.90;;;;;;5033570;28;20565;-53
2023/04/09 04:07:25;;;;;;;8.45;5.80;;;6.40;99.90;;;;;;5033720;28;20469;-50
2023/04/09 04:09:50;;;;;;;10.35;5.90;;;6.60;99.90;;;;;;5033948;28;20041;-48
2023/04/09 04:12:16;;;;;;;8.82;5.53;;;6.60;99.90;;;;;;5033630;28;20095;-47
2023/04/09 04:14:42;;;;;;;8.85;6.15;;;6.60;99.90;;;;;;5033594;28;20079;-49
2023/04/09 04:17:09;;;;;;;10.23;6.72;;;6.70;99.90;;;;;;5033410;28;20032;-49
2023/04/09 04:19:34;;;;;;;6.68;4.82;;;6.70;99.90;;;;;;5034123;28;20029;-51
2023/04/09 04:22:00;;;;;;;13.40;6.38;;;6.70;99.90;;;;;;5033887;28;20439;-50
2023/04/09 04:24:26;;;;;;;12.65;7.75;;;6.70;99.90;;;;;;5032719;28;20111;-49
2023/04/09 04:26:51;;;;;;;13.43;8.93;;;6.80;99.90;;;;;;5033564;28;20120;-49
2023/04/09 04:29:17;;;;;;;8.32;6.63;;;6.80;99.90;;;;;;5033224;28;20040;-48
2023/04/09 04:31:43;;;;;;;8.02;5.20;;;6.50;99.90;;;;;;5033324;28;20501;-51
2023/04/09 04:34:08;;;;;;;10.18;6.07;;;6.00;99.90;;;;;;5033511;28;20560;-47
2023/04/09 04:36:35;;;;;;;6.47;5.70;;;5.80;99.90;;;;;;5033206;28;20044;-51
2023/04/09 04:39:01;;;;;;;10.88;5.13;;;5.80;99.90;;;;;;5048074;28;20056;-49
2023/04/09 04:41:28;;;;;;;8.18;5.57;;;5.70;99.90;;;;;;5033299;28;20037;-50
2023/04/09 04:43:53;;;;;;;8.68;5.18;;;5.40;99.90;;;;;;5033512;28;20116;-49
2023/04/09 04:46:19;;;;;;;5.82;4.60;;;;;;;;;;5047940;28;20172;-50
2023/04/09 04:48:45;;;;;;;11.73;5.85;;;;;;;;;;5031339;28;20052;-50
2023/04/09 04:51:11;;;;;;;9.43;5.15;;;4.80;99.90;;;;;;5031429;28;20053;-51
2023/04/09 04:53:37;;;;;;;8.82;5.80;;;5.00;99.90;;;;;;5033251;28;20033;-49
2023/04/09 04:56:03;;;;;;;7.53;5.38;;;5.00;99.90;;;;;;5032882;28;20428;-48
2023/04/09 04:58:29;;;;;;;7.55;5.10;;;5.00;99.90;;;;;;5014556;28;20095;-50
2023/04/09 05:00:55;;;;;;;9.68;6.18;;;5.00;99.90;;;;;;5033003;28;20040;-51
2023/04/09 05:03:21;;;;;;;7.32;4.97;;;5.20;99.90;;;;;;5032939;28;20030;-48
2023/04/09 05:05:47;;;;;;;8.35;4.68;;;5.10;99.90;;;;;;5031089;28;20034;-50
2023/04/09 05:08:12;;;;;;;6.50;5.18;;;5.30;99.90;;;;;;5031224;28;20096;-50
2023/04/09 05:10:45;;;;;;;6.38;5.22;;;5.60;99.90;;;;;;5033065;28;20041;-49
2023/04/09 05:13:11;;;;;;;7.80;5.70;;;5.50;99.90;;;;;;5033172;28;20044;-50
2023/04/09 05:15:39;;;;;;;9.48;6.90;;;5.50;99.90;;;;;;5032968;28;20029;-50
2023/04/09 05:18:06;;;;;;;13.40;8.70;;;5.60;99.90;;;;;;5032974;28;20057;-51
2023/04/09 05:20:32;;;;;;;12.20;5.88;;;5.70;99.90;;;;;;5032789;28;20495;-50
2023/04/09 05:22:58;;;;;;;7.70;6.00;;;5.70;99.90;;;;;;5032638;28;20362;-48
2023/04/09 05:25:24;;;;;;;8.43;4.57;;;5.50;99.90;;;;;;5032560;28;20065;-50
2023/04/09 05:27:50;;;;;;;79.25;48.55;;;5.20;99.90;;;;;;5033102;28;20036;-49
2023/04/09 05:30:16;;;;;;;11.43;7.75;;;5.10;99.90;;;;;;5031615;28;20393;-49
2023/04/09 05:32:41;;;;;;;8.70;7.28;;;5.50;99.90;;;;;;5047683;28;20046;-50
2023/04/09 05:35:07;;;;;;;12.25;7.28;;;6.10;99.90;;;;;;5031628;28;20033;-51
2023/04/09 05:37:33;;;;;;;9.73;7.97;;;6.40;99.90;;;;;;5034461;28;20037;-50
2023/04/09 05:39:59;;;;;;;10.20;8.00;;;6.80;99.90;;;;;;5036433;28;20018;-50
2023/04/09 05:42:25;;;;;;;15.80;11.50;;;7.00;99.90;;;;;;5036376;28;20025;-50
2023/04/09 05:44:51;;;;;;;19.30;12.25;;;7.30;99.90;;;;;;5036537;28;20022;-51
2023/04/09 05:47:16;;;;;;;12.10;9.95;;;7.40;99.90;;;;;;5036297;28;20022;-48
2023/04/09 05:49:42;;;;;;;12.48;9.68;;;7.70;99.90;;;;;;5001412;28;20091;-50
2023/04/09 05:52:08;;;;;;;10.48;8.57;;;7.90;99.90;;;;;;5036127;28;20432;-51
2023/04/09 05:54:34;;;;;;;9.50;7.07;;;8.10;99.90;;;;;;5035919;28;20033;-49
2023/04/09 05:56:59;;;;;;;9.35;8.38;;;8.20;99.90;;;;;;5036050;28;20032;-48
2023/04/09 05:59:25;;;;;;;10.23;8.45;;;8.40;99.90;;;;;;5036509;28;20365;-52
2023/04/09 06:01:51;;;;;;;8.48;7.57;;;8.60;99.90;;;;;;5035823;28;20091;-49
2023/04/09 06:04:17;;;;;;;9.93;6.68;;;;;;;;;;5035904;28;20113;-51
2023/04/09 06:06:43;;;;;;;9.25;7.78;;;9.10;99.90;;;;;;5035787;28;20025;-47
2023/04/09 06:09:09;;;;;;;9.43;7.28;;;9.10;99.90;;;;;;5034068;28;20415;-49
2023/04/09 06:11:34;;;;;;;10.30;8.20;;;9.00;99.90;;;;;;5035826;28;20033;-51
2023/04/09 06:14:00;;;;;;;12.43;8.90;;;9.30;99.90;;;;;;5035676;28;20470;-50
2023/04/09 06:16:26;;;;;;;11.13;8.98;;;9.60;99.90;;;;;;5035880;28;20037;-49
2023/04/09 06:18:53;;;;;;;9.02;7.15;;;9.70;99.90;;;;;;5035740;28;20120;-49
2023/04/09 06:21:19;;;;;;;10.40;7.70;;;9.60;99.90;;;;;;5035835;28;20469;-50
2023/04/09 06:23:45;;;;;;;12.82;8.88;;;9.30;99.90;;;;;;5035119;28;20017;-51
2023/04/09 06:26:11;;;;;;;13.75;7.93;;;9.30;99.90;;;;;;5050329;28;20044;-50
2023/04/09 06:28:36;;;;;;;12.70;7.68;;;9.40;99.90;;;;;;5035540;28;20469;-49
2023/04/09 06:31:02;;;;;;;12.52;9.18;;;;;;;;;;5035626;28;20049;-47
2023/04/09 06:33:29;;;;;;;12.75;9.25;;;;;;;;;;5033683;28;20044;-51
2023/04/09 06:35:55;;;;;;;14.40;10.77;;;10.00;99.90;;;;;;5033507;28;20091;-51
2023/04/09 06:38:20;;;;;;;13.13;9.93;;;10.10;99.90;;;;;;5033402;28;20041;-51
2023/04/09 06:40:46;;;;;;;15.10;10.60;;;10.20;99.90;;;;;;5035535;28;20018;-50
2023/04/09 06:43:12;;;;;;;12.23;9.82;;;10.30;99.90;;;;;;5035265;28;20450;-49
2023/04/09 06:45:38;;;;;;;14.52;10.35;;;10.50;99.90;;;;;;5033029;28;20037;-49
2023/04/09 06:48:04;;;;;;;13.35;10.57;;;10.60;99.90;;;;;;5033273;28;20037;-49
2023/04/09 06:50:29;;;;;;;18.00;12.35;;;10.80;99.90;;;;;;5033262;28;20159;-52
2023/04/09 06:52:56;;;;;;;15.13;10.25;;;11.00;99.90;;;;;;5049835;28;20128;-49
2023/04/09 06:55:22;;;;;;;10.45;8.25;;;11.20;99.90;;;;;;5035434;28;20034;-49
2023/04/09 06:57:48;;;;;;;13.40;9.98;;;11.30;99.90;;;;;;5034988;28;20031;-49
2023/04/09 07:00:13;;;;;;;13.10;8.27;;;11.40;99.90;;;;;;5034817;28;20036;-52
2023/04/09 07:02:40;;;;;;;13.70;9.55;;;;;;;;;;5034847;28;20033;-52
2023/04/09 07:05:06;;;;;;;12.18;8.48;;;13.80;99.90;;;;;;5035205;28;20423;-49
2023/04/09 07:07:31;;;;;;;12.43;9.25;;;11.90;99.90;;;;;;5033100;28;20079;-51
2023/04/09 07:09:57;;;;;;;14.52;9.30;;;12.00;99.90;;;;;;5034399;28;20030;-50
2023/04/09 07:12:30;;;;;;;15.27;10.02;;;12.10;99.90;;;;;;4999945;28;20037;-49
2023/04/09 07:15:04;;;;;;;13.07;9.52;;;11.90;99.90;;;;;;5033370;28;20462;-50
2023/04/09 07:17:30;;;;;;;11.75;9.10;;;12.10;99.90;;;;;;5032754;28;20044;-50
2023/04/09 07:19:56;;;;;;;13.68;9.38;;;12.30;99.90;;;;;;5034929;28;20412;-52
2023/04/09 07:22:23;;;;;;;10.57;8.63;;;12.60;99.90;;;;;;5032660;28;20042;-51
2023/04/09 07:24:52;;;;;;;13.18;9.43;;;12.70;99.90;;;;;;5034338;28;20045;-48
2023/04/09 07:27:20;;;;;;;13.13;9.40;;;12.90;99.90;;;;;;5034573;28;20029;-51
2023/04/09 07:29:46;;;;;;;12.25;8.80;;;13.00;99.90;;;;;;5034284;28;20036;-48
2023/04/09 07:32:12;;;;;;;11.38;8.20;;;13.00;99.90;;;;;;5032376;28;20045;-51
2023/04/09 07:34:37;;;;;;;13.63;9.45;;;13.20;99.90;;;;;;5033961;28;20029;-50
2023/04/09 07:37:03;;;;;;;10.60;8.25;;;13.10;99.90;;;;;;5039614;28;20087;-49
2023/04/09 07:39:29;;;;;;;10.02;7.35;;;13.50;99.90;;;;;;5029200;28;20474;-50
2023/04/09 07:41:56;;;;;;;11.23;8.70;;;13.30;99.90;;;;;;5028857;28;20041;-52
2023/04/09 07:44:22;;;;;;;14.23;9.32;;;13.30;99.90;;;;;;5014420;28;20033;-51
2023/04/09 07:46:47;;;;;;;11.93;8.70;;;12.90;99.90;;;;;;5012480;28;20394;-51
2023/04/09 07:49:13;;;;;;;15.10;9.45;;;13.00;99.90;;;;;;5014596;28;20029;-48
2023/04/09 07:51:39;;;;;;;13.27;9.02;;;12.90;99.90;;;;;;5014158;28;20037;-51
2023/04/09 07:54:05;;;;;;;12.60;9.52;;;12.80;99.90;;;;;;5028513;28;20045;-49
2023/04/09 07:56:30;;;;;;;12.55;7.93;;;12.70;99.90;;;;;;5028756;28;20044;-49
2023/04/09 07:58:56;;;;;;;12.18;8.90;;;13.00;99.90;;;;;;5013478;28;20026;-53
2023/04/09 08:01:23;;;;;;;12.38;7.72;;;13.40;99.90;;;;;;5013944;28;20482;-51
2023/04/09 08:03:49;;;;;;;9.82;7.07;;;13.20;99.90;;;;;;5013864;28;20532;-50
2023/04/09 08:06:15;;;;;;;12.57;7.45;;;13.50;99.90;;;;;;5013684;28;20057;-51
2023/04/09 08:08:42;;;;;;;10.93;7.68;;;13.70;99.90;;;;;;5011976;28;20045;-50
2023/04/09 08:11:08;;;;;;;10.27;7.30;;;;;;;;;;5013599;28;20052;-48
2023/04/09 08:13:34;;;;;;;11.02;7.80;;;14.50;99.90;;;;;;5013941;28;20032;-50
2023/04/09 08:16:03;;;;;;;14.15;9.48;;;14.30;99.90;;;;;;5013739;28;20112;-50
2023/04/09 08:18:28;;;;;;;13.95;9.13;;;14.20;99.90;;;;;;5011947;28;20042;-49
2023/04/09 08:20:55;;;;;;;13.15;9.35;;;13.80;99.90;;;;;;5013651;28;20041;-50
2023/04/09 08:23:21;;;;;;;11.13;8.90;;;14.10;99.90;;;;;;5013736;28;20076;-50
2023/04/09 08:25:47;;;;;;;15.27;11.23;;;14.10;99.90;;;;;;5013165;28;20074;-51
2023/04/09 08:28:13;;;;;;;12.75;7.43;;;14.10;99.90;;;;;;5018621;28;20036;-51
2023/04/09 08:30:38;;;;;;;16.98;10.48;;;14.30;99.90;;;;;;5023044;28;20030;-53
2023/04/09 08:33:04;;;;;;;12.43;8.30;;;14.50;99.90;;;;;;5021792;28;20079;-52
2023/04/09 08:35:30;;;;;;;11.80;7.85;;;13.90;99.90;;;;;;5014267;28;20030;-49
2023/04/09 08:37:56;;;;;;;11.65;7.63;;;14.20;99.90;;;;;;5032201;28;20128;-49
2023/04/09 08:40:22;;;;;;;10.40;7.55;;;14.40;99.90;;;;;;5026199;28;20079;-52
2023/04/09 08:42:56;;;;;;;12.30;6.70;;;14.80;99.90;;;;;;5024454;28;20476;-51
2023/04/09 08:45:22;;;;;;;12.57;7.28;;;15.50;99.90;;;;;;5033228;28;20036;-54
2023/04/09 08:47:49;;;;;;;11.52;7.30;;;;;;;;;;5033199;28;20401;-51
2023/04/09 08:50:16;;;;;;;13.43;7.55;;;;;;;;;;5032890;28;20527;-53
2023/04/09 08:52:42;;;;;;;12.73;7.57;;;;;;;;;;5031199;28;20124;-48
2023/04/09 08:55:10;;;;;;;11.43;7.45;;;15.40;99.90;;;;;;5033377;28;20048;-50
2023/04/09 08:57:37;;;;;;;12.70;7.43;;;;;;;;;;5032974;28;20029;-48
2023/04/09 09:00:03;;;;;;;13.50;7.80;;;;;;;;;;5030244;28;20040;-53
2023/04/09 09:02:30;;;;;;;9.25;7.15;;;;;;;;;;5030672;28;20057;-51
2023/04/09 09:04:59;;;;;;;11.85;8.40;;;16.90;99.90;;;;;;5032417;28;20496;-51
2023/04/09 09:07:27;;;;;;;7.78;5.53;;;;;;;;;;5032898;28;20064;-50
2023/04/09 09:09:55;;;;;;;10.30;6.10;;;17.40;99.90;;;;;;5035058;28;20029;-51
2023/04/09 09:12:34;;;;;;;12.15;7.50;;;16.40;99.90;;;;;;5034986;28;20041;-53
2023/04/09 09:15:00;;;;;;;11.38;6.78;;;16.10;99.90;;;;;;5036763;28;20021;-52
2023/04/09 09:17:26;;;;;;;13.13;7.85;;;16.90;99.90;;;;;;5028689;28;20117;-49
2023/04/09 09:19:52;;;;;;;9.35;6.70;;;;;;;;;;5018672;28;20112;-51
2023/04/09 09:22:18;;;;;;;9.57;6.22;;;;;;;;;;5027465;28;20025;-52
2023/04/09 09:24:48;;;;;;;6.10;4.40;;;16.10;99.90;;;;;;5039576;28;20037;-48
2023/04/09 09:27:35;;;;;;;11.13;6.75;;;15.70;99.90;;;;;;5036144;28;20473;-51
2023/04/09 09:30:03;;;;;;;7.22;5.40;;;;;;;;;;5036463;28;20033;-51
2023/04/09 09:32:29;;;;;;;8.60;6.28;;;;;;;;;;5036736;28;20033;-53
2023/04/09 09:35:05;;;;;;;12.80;7.38;;;;;;;;;;5036449;28;20528;-49
2023/04/09 09:37:31;;;;;;;10.18;6.95;;;;;;;;;;5036780;28;20052;-52
2023/04/09 09:39:58;;;;;;;8.00;6.03;;;;;;;;;;5036266;28;20029;-52
2023/04/09 09:42:26;;;;;;;7.95;5.30;;;;;;;;;;5036423;28;20470;-50
2023/04/09 09:44:54;;;;;;;6.03;4.55;;;;;;;;;;5036600;28;20032;-49
2023/04/09 09:47:20;;;;;;;9.30;5.65;;;;;;;;;;5036769;28;20112;-54
2023/04/09 09:49:50;;;;;;;8.48;5.85;;;;;;;;;;5036078;28;20175;-51
2023/04/09 09:52:27;;;;;;;8.57;6.15;;;17.30;99.90;;;;;;5036284;28;20393;-52
2023/04/09 09:54:54;;;;;;;7.70;5.35;;;17.00;99.90;;;;;;5035682;28;20033;-48
2023/04/09 09:57:23;;;;;;;7.90;5.65;;;17.50;99.90;;;;;;5036403;28;20033;-52
2023/04/09 10:00:00;;;;;;;7.43;5.03;;;17.00;99.90;;;;;;5035931;28;20033;-49
2023/04/09 10:02:31;;;;;;;7.60;5.78;;;17.70;99.90;;;;;;5036025;28;20021;-50
2023/04/09 10:05:00;;;;;;;9.07;5.95;;;17.80;99.90;;;;;;5036075;28;20033;-49
2023/04/09 10:07:26;;;;;;;9.50;6.32;;;18.20;99.90;;;;;;5034113;28;20111;-50
2023/04/09 10:09:53;;;;;;;11.13;6.18;;;;;;;;;;5035536;28;20029;-52
2023/04/09 10:12:22;;;;;;;7.50;5.85;;;;;;;;;;5035981;28;20022;-52
2023/04/09 10:14:51;;;;;;;10.43;6.40;;;;;;;;;;5035821;28;20037;-52
2023/04/09 10:17:17;;;;;;;10.95;6.22;;;;;;;;;;5035752;28;20053;-53
2023/04/09 10:19:51;;;;;;;8.60;5.80;;;19.40;99.90;;;;;;5035450;28;20041;-50
2023/04/09 10:22:18;;;;;;;8.55;6.07;;;;;;;;;;5035051;28;20029;-47
2023/04/09 10:24:44;;;;;;;6.47;5.63;;;19.50;99.90;;;;;;5034361;28;20052;-49
2023/04/09 10:27:14;;;;;;;8.10;5.97;;;19.40;98.60;;;;;;5031327;28;20021;-50
2023/04/09 10:29:46;;;;;;;6.28;4.97;;;19.20;97.40;;;;;;5020105;28;20030;-46
2023/04/09 10:32:25;;;;;;;8.77;5.90;;;19.30;96.90;;;;;;5029317;28;20057;-48
2023/04/09 10:34:51;;;;;;;11.77;5.95;;;19.40;96.10;;;;;;5025556;28;20030;-50
2023/04/09 10:37:21;;;;;;;7.15;5.15;;;19.60;97.40;;;;;;5023963;28;20113;-50
2023/04/09 10:39:49;;;;;;;7.53;5.63;;;19.50;95.40;;;;;;5027746;28;20029;-49
2023/04/09 10:42:23;;;;;;;9.15;5.10;;;19.40;95.30;;;;;;5027003;28;20052;-49
2023/04/09 10:45:10;;;;;;;8.88;5.25;;;;;;;;;;5025284;28;20112;-49
2023/04/09 10:47:41;;;;;;;6.72;4.40;;;19.70;99.90;;;;;;5025797;28;20046;-52
2023/04/09 10:50:24;;;;;;;7.93;5.53;;;19.40;95.80;;;;;;5022920;28;20100;-50
2023/04/09 10:52:59;;;;;;;6.78;4.72;;;19.50;96.60;;;;;;5025144;28;20037;-49
2023/04/09 10:55:35;;;;;;;7.93;4.80;;;19.20;94.20;;;;;;5025082;28;20041;-50
2023/04/09 10:58:08;;;;;;;8.65;5.35;;;18.90;94.30;;;;;;5023765;28;20092;-50
2023/04/09 11:00:39;;;;;;;9.18;6.70;;;18.20;95.10;;;;;;5023498;28;20025;-47
2023/04/09 11:03:26;;;;;;;8.25;6.00;;;18.80;94.80;;;;;;5024557;28;20099;-48
2023/04/09 11:05:54;;;;;;;7.65;5.30;;;;;;;;;;5025360;28;20045;-48
2023/04/09 11:08:20;;;;;;;10.07;5.78;;;19.90;96.10;;;;;;5023465;28;20057;-50
2023/04/09 11:10:47;;;;;;;8.25;5.93;;;19.40;99.90;;;;;;5021836;28;20037;-48
2023/04/09 11:13:14;;;;;;;6.85;5.32;;;19.30;99.30;;;;;;5030621;28;20022;-47
2023/04/09 11:15:40;;;;;;;8.32;5.72;;;19.10;94.10;;;;;;5024645;28;20018;-50
2023/04/09 11:18:08;;;;;;;6.90;4.88;;;19.20;94.40;;;;;;5024727;28;20034;-48
2023/04/09 11:20:34;;;;;;;6.50;4.70;;;18.80;94.30;;;;;;5021062;28;20044;-48
2023/04/09 11:23:01;;;;;;;10.88;6.30;;;18.50;94.70;;;;;;5032262;28;20033;-48
2023/04/09 11:25:29;;;;;;;7.47;5.20;;;17.90;95.20;;;;;;5033276;28;20050;-47
2023/04/09 11:27:55;;;;;;;8.38;6.57;;;17.50;95.40;;;;;;5018054;28;20037;-46
2023/04/09 11:30:21;;;;;;;7.88;5.85;;;17.70;96.40;;;;;;5031360;28;20025;-48
2023/04/09 11:32:48;;;;;;;7.93;5.03;;;18.00;95.80;;;;;;5029999;28;20061;-48
2023/04/09 11:35:19;;;;;;;6.95;4.90;;;17.70;95.60;;;;;;5022746;28;20026;-47
2023/04/09 11:37:46;;;;;;;6.85;4.65;;;18.00;95.20;;;;;;5023953;28;20029;-49
2023/04/09 11:40:21;;;;;;;6.38;4.35;;;17.70;95.00;;;;;;5026560;28;20393;-49
2023/04/09 11:42:52;;;;;;;10.02;6.78;;;18.10;95.80;;;;;;5023938;28;20033;-48
2023/04/09 11:45:21;;;;;;;6.43;5.00;;;18.60;95.20;;;;;;5023085;28;20157;-51
2023/04/09 11:47:47;;;;;;;8.70;6.25;;;19.10;96.10;;;;;;5023307;28;20036;-51
2023/04/09 11:50:15;;;;;;;8.95;5.20;;;19.30;98.20;;;;;;5014235;28;20052;-51
2023/04/09 11:52:41;;;;;;;6.32;4.88;;;;;;;;;;5023270;28;20026;-52
2023/04/09 11:55:08;;;;;;;6.30;4.60;;;18.40;99.90;;;;;;5022991;28;20477;-48
2023/04/09 11:57:46;;;;;;;7.15;4.80;;;17.20;94.00;;;;;;5024271;28;20026;-48
2023/04/09 12:00:12;;;;;;;6.55;4.38;;;;;;;;;;5020528;28;20034;-50
2023/04/09 12:02:46;;;;;;;6.13;5.13;;;16.60;99.90;;;;;;5027484;28;20037;-48
2023/04/09 12:05:23;;;;;;;5.68;4.85;;;16.40;95.50;;;;;;5013377;28;20425;-47
2023/04/09 12:07:49;;;;;;;6.10;3.95;;;16.50;95.90;;;;;;5030085;28;20489;-49
2023/04/09 12:10:15;;;;;;;6.25;3.97;;;16.10;95.70;;;;;;5029901;28;20116;-52
2023/04/09 12:12:46;;;;;;;6.50;4.68;;;15.70;95.60;;;;;;5030084;28;20104;-48
2023/04/09 12:15:19;;;;;;;7.57;4.70;;;15.70;96.30;;;;;;4995749;28;20202;-48
2023/04/09 12:17:53;;;;;;;7.55;5.63;;;15.80;96.90;;;;;;5030019;28;20037;-50
2023/04/09 12:20:46;;;;;;;6.07;4.72;;;15.90;96.70;;;;;;5030358;28;20503;-50
2023/04/09 12:23:13;;;;;;;7.00;5.03;;;15.90;96.70;;;;;;5030140;28;20033;-50
2023/04/09 12:25:44;;;;;;;6.05;4.53;;;15.90;96.90;;;;;;5030820;28;20532;-48
2023/04/09 12:28:15;;;;;;;6.07;4.95;;;15.70;96.90;;;;;;5031073;28;20025;-48
2023/04/09 12:30:42;;;;;;;6.90;5.03;;;15.90;96.80;;;;;;5031569;28;20060;-49
2023/04/09 12:33:07;;;;;;;6.38;4.13;;;15.80;97.30;;;;;;5033012;28;20029;-53
2023/04/09 12:35:33;;;;;;;9.38;6.32;;;16.10;97.80;;;;;;5033369;28;20097;-48
2023/04/09 12:37:59;;;;;;;6.45;5.13;;;16.10;97.80;;;;;;5033144;28;20048;-48
2023/04/09 12:40:26;;;;;;;8.90;5.07;;;16.10;97.80;;;;;;5033123;28;20053;-47
2023/04/09 12:42:52;;;;;;;9.32;5.88;;;15.80;97.60;;;;;;5033052;28;20033;-48
2023/04/09 12:45:20;;;;;;;8.55;5.88;;;15.40;98.10;;;;;;5033099;28;20148;-48
2023/04/09 12:47:46;;;;;;;10.02;6.97;;;15.30;98.20;;;;;;5033242;28;20071;-49
2023/04/09 12:50:12;;;;;;;8.35;5.95;;;15.50;98.80;;;;;;5031008;28;20076;-53
2023/04/09 12:52:39;;;;;;;10.05;5.03;;;;;;;;;;5032988;28;20034;-52
2023/04/09 12:55:05;;;;;;;6.72;4.78;;;15.30;99.90;;;;;;5032903;28;20028;-48
2023/04/09 12:57:32;;;;;;;11.00;7.10;;;15.10;96.90;;;;;;5032884;28;20112;-52
2023/04/09 12:59:57;;;;;;;11.27;7.68;;;14.80;97.80;;;;;;5032419;28;20030;-48
2023/04/09 13:02:24;;;;;;;11.00;5.72;;;;;;;;;;5032833;28;20377;-49